createdAt,value
2023-02-02T00:00:39.420Z,101150.94
2023-02-02T00:05:53.186Z,101138.13
2023-02-02T00:10:56.039Z,101140.22
2023-02-02T00:15:58.892Z,101132.78
2023-02-02T00:21:01.684Z,101135.09
2023-02-02T00:26:04.851Z,101131.63
2023-02-02T00:31:07.758Z,101134.22
2023-02-02T00:36:10.411Z,101134.41
2023-02-02T00:41:13.477Z,101126.38
2023-02-02T00:46:19.203Z,101127.03
2023-02-02T00:51:22.357Z,101128.47
2023-02-02T00:56:26.235Z,101113.34
2023-02-02T01:01:29.607Z,101127.25
2023-02-02T01:06:32.269Z,101110.44
2023-02-02T01:11:34.914Z,101112.00
2023-02-02T01:16:37.740Z,101112.34
2023-02-02T01:21:40.402Z,101100.69
2023-02-02T01:26:43.286Z,101098.84
2023-02-02T01:31:46.193Z,101098.88
2023-02-02T01:36:49.188Z,101101.34
2023-02-02T01:41:52.129Z,101092.78
2023-02-02T01:46:54.951Z,101085.47
2023-02-02T01:52:01.100Z,101096.13
2023-02-02T01:57:12.958Z,101093.06
2023-02-02T02:02:16.834Z,101075.75
2023-02-02T02:07:20.140Z,101074.94
2023-02-02T02:12:22.863Z,101059.09
2023-02-02T02:17:49.747Z,101065.50
2023-02-02T02:23:42.963Z,101057.56
2023-02-02T02:29:21.354Z,101059.25
2023-02-02T02:34:53.250Z,101058.81
2023-02-02T02:40:09.617Z,101062.28
2023-02-02T02:45:14.053Z,101060.47
2023-02-02T02:50:17.167Z,101068.53
2023-02-02T02:55:20.173Z,101078.63
2023-02-02T03:00:40.489Z,101077.25
2023-02-02T03:06:04.916Z,101088.13
2023-02-02T03:11:11.477Z,101089.66
2023-02-02T03:16:16.647Z,101100.84
2023-02-02T03:21:19.651Z,101113.38
2023-02-02T03:26:22.461Z,101116.19
2023-02-02T03:31:29.018Z,101123.59
2023-02-02T03:36:31.717Z,101130.00
2023-02-02T03:41:34.408Z,101138.19
2023-02-02T03:46:37.384Z,101161.09
2023-02-02T03:51:40.280Z,101157.22
2023-02-02T03:56:43.182Z,101152.91
2023-02-02T04:01:45.904Z,101153.03
2023-02-02T04:06:48.714Z,101162.75
2023-02-02T04:11:51.414Z,101175.22
2023-02-02T04:16:54.067Z,101184.00
2023-02-02T04:21:56.788Z,101181.63
2023-02-02T04:26:59.535Z,101182.22
2023-02-02T04:32:02.299Z,101193.00
2023-02-02T04:37:05.034Z,101204.16
2023-02-02T04:42:07.604Z,101200.41
2023-02-02T04:47:10.228Z,101220.81
2023-02-02T04:52:13.450Z,101218.69
2023-02-02T04:57:16.117Z,101233.97
2023-02-02T05:02:19.925Z,101239.91
2023-02-02T05:07:22.548Z,101243.13
2023-02-02T05:12:25.357Z,101239.13
2023-02-02T05:17:28.477Z,101241.13
2023-02-02T05:22:31.163Z,101240.38
2023-02-02T05:27:33.927Z,101242.78
2023-02-02T05:32:36.676Z,101235.50
2023-02-02T05:37:39.376Z,101234.41
2023-02-02T05:42:42.165Z,101239.00
2023-02-02T05:47:44.831Z,101234.56
2023-02-02T05:52:49.043Z,101237.47
2023-02-02T05:57:51.740Z,101247.16
2023-02-02T06:02:54.652Z,101244.91
2023-02-02T06:08:02.537Z,101256.56
2023-02-02T06:13:05.194Z,101235.09
2023-02-02T06:18:08.654Z,101248.66
2023-02-02T06:23:11.282Z,101258.13
2023-02-02T06:28:13.851Z,101256.25
2023-02-02T06:33:16.982Z,101253.00
2023-02-02T06:38:19.907Z,101270.56
2023-02-02T06:43:22.612Z,101274.66
2023-02-02T06:48:25.638Z,101274.28
2023-02-02T06:53:28.334Z,101257.81
2023-02-02T06:58:32.379Z,101274.75
2023-02-02T07:03:35.910Z,101278.13
2023-02-02T07:08:38.779Z,101280.19
2023-02-02T07:13:41.678Z,101287.16
2023-02-02T07:18:45.093Z,101290.13
2023-02-02T07:23:48.859Z,101297.88
2023-02-02T07:28:52.471Z,101293.66
2023-02-02T07:33:55.535Z,101305.19
2023-02-02T07:38:58.317Z,101309.63
2023-02-02T07:44:01.391Z,101304.94
2023-02-02T07:49:04.307Z,101296.72
2023-02-02T07:54:07.462Z,101280.34
2023-02-02T07:59:11.381Z,101278.22
2023-02-02T08:04:14.112Z,101286.66
2023-02-02T08:09:17.167Z,101281.44
2023-02-02T08:14:20.065Z,101275.63
2023-02-02T08:19:22.962Z,101269.00
2023-02-02T08:24:26.289Z,101256.72
2023-02-02T08:29:29.250Z,101263.53
2023-02-02T08:34:35.022Z,101258.00
2023-02-02T08:39:37.852Z,101255.44
2023-02-02T08:45:01.322Z,101251.16
2023-02-02T08:50:03.265Z,101242.34
2023-02-02T08:55:07.438Z,101245.59
2023-02-02T09:00:12.010Z,101240.06
2023-02-02T09:05:15.766Z,101230.44
2023-02-02T09:10:18.632Z,101220.19
2023-02-02T09:15:21.536Z,101223.06
2023-02-02T09:20:24.489Z,101221.75
2023-02-02T09:25:28.624Z,101214.66
2023-02-02T09:30:32.505Z,101215.53
2023-02-02T09:35:35.404Z,101198.78
2023-02-02T09:40:38.383Z,101219.69
2023-02-02T09:46:03.333Z,101212.88
2023-02-02T09:51:18.732Z,101203.63
2023-02-02T09:56:33.473Z,101197.09
2023-02-02T10:01:43.018Z,101187.72
2023-02-02T10:06:52.278Z,101196.25
2023-02-02T10:12:17.512Z,101195.16
2023-02-02T10:17:29.389Z,101189.16
2023-02-02T10:22:34.728Z,101191.56
2023-02-02T10:27:41.259Z,101194.84
2023-02-02T10:32:55.875Z,101180.09
2023-02-02T10:38:24.303Z,101174.22
2023-02-02T10:44:04.392Z,101184.59
2023-02-02T10:49:34.292Z,101172.56
2023-02-02T10:54:58.419Z,101174.56
2023-02-02T11:00:22.527Z,101180.81
2023-02-02T11:05:47.662Z,101177.47
2023-02-02T11:10:53.490Z,101177.59
2023-02-02T11:16:17.607Z,101182.22
2023-02-02T11:21:27.945Z,101168.06
2023-02-02T11:26:48.428Z,101179.75
2023-02-02T11:31:51.346Z,101177.97
2023-02-02T11:37:03.523Z,101181.53
2023-02-02T11:42:20.776Z,101182.53
2023-02-02T11:47:34.164Z,101183.09
2023-02-02T11:52:40.593Z,101172.59
2023-02-02T11:58:12.182Z,101180.81
2023-02-02T12:03:40.114Z,101183.00
2023-02-02T12:08:42.855Z,101185.97
2023-02-02T12:13:59.175Z,101192.72
2023-02-02T12:19:20.791Z,101205.75
2023-02-02T12:24:46.543Z,101204.09
2023-02-02T12:30:15.402Z,101216.53
2023-02-02T12:35:45.355Z,101216.25
2023-02-02T12:41:10.211Z,101225.00
2023-02-02T12:46:28.364Z,101216.50
2023-02-02T12:51:56.014Z,101232.63
2023-02-02T12:56:58.876Z,101233.03
2023-02-02T13:02:29.622Z,101233.28
2023-02-02T13:07:47.856Z,101242.59
2023-02-02T13:13:12.771Z,101233.91
2023-02-02T13:18:27.819Z,101254.09
2023-02-02T13:24:00.240Z,101234.44
2023-02-02T13:29:23.890Z,101235.94
2023-02-02T13:34:39.903Z,101236.72
2023-02-02T13:39:49.865Z,101235.34
2023-02-02T13:44:59.107Z,101237.28
2023-02-02T13:50:08.009Z,101242.13
2023-02-02T13:55:51.719Z,101248.44
2023-02-02T14:00:59.927Z,101258.66
2023-02-02T14:06:17.581Z,101255.28
2023-02-02T14:11:31.547Z,101269.34
2023-02-02T14:16:34.239Z,101272.38
2023-02-02T14:21:37.051Z,101271.59
2023-02-02T14:26:43.652Z,101282.44
2023-02-02T14:31:55.647Z,101279.09
2023-02-02T14:37:20.741Z,101286.47
2023-02-02T14:43:00.710Z,101285.00
2023-02-02T14:48:22.001Z,101284.88
2023-02-02T14:53:30.760Z,101291.97
2023-02-02T14:58:52.852Z,101301.47
2023-02-02T15:04:21.756Z,101297.97
2023-02-02T15:09:28.682Z,101310.34
2023-02-02T15:15:01.626Z,101321.19
2023-02-02T15:20:15.014Z,101327.22
2023-02-02T15:26:08.071Z,101330.19
2023-02-02T15:31:27.529Z,101332.84
2023-02-02T15:36:38.905Z,101325.53
2023-02-02T15:41:47.014Z,101326.81
2023-02-02T15:46:51.378Z,101345.00
2023-02-02T15:51:57.279Z,101342.00
2023-02-02T15:57:00.900Z,101339.09
2023-02-02T16:02:12.337Z,101355.91
2023-02-02T16:07:22.151Z,101350.28
2023-02-02T16:12:24.984Z,101355.78
2023-02-02T16:17:32.671Z,101351.69
2023-02-02T16:22:38.338Z,101351.00
2023-02-02T16:27:46.595Z,101349.06
2023-02-02T16:32:50.090Z,101351.84
2023-02-02T16:37:53.783Z,101355.09
2023-02-02T16:43:07.901Z,101349.06
2023-02-02T16:48:29.942Z,101351.50
2023-02-02T16:53:32.746Z,101346.56
2023-02-02T16:58:43.952Z,101354.25
2023-02-02T17:03:55.526Z,101364.25
2023-02-02T17:09:15.828Z,101360.13
2023-02-02T17:14:30.339Z,101357.00
2023-02-02T17:19:32.910Z,101352.66
2023-02-02T17:24:35.705Z,101374.78
2023-02-02T17:29:38.406Z,101371.75
2023-02-02T17:34:41.456Z,101362.28
2023-02-02T17:39:44.923Z,101371.44
2023-02-02T17:44:47.714Z,101367.94
2023-02-02T17:49:50.516Z,101363.00
2023-02-02T17:54:53.258Z,101375.38
2023-02-02T17:59:55.843Z,101379.44
2023-02-02T18:04:58.808Z,101383.94
2023-02-02T18:10:01.769Z,101385.31
2023-02-02T18:15:09.215Z,101379.75
2023-02-02T18:20:15.352Z,101379.03
2023-02-02T18:25:19.437Z,101388.59
2023-02-02T18:30:22.167Z,101383.66
2023-02-02T18:35:26.149Z,101386.25
2023-02-02T18:40:28.991Z,101387.53
2023-02-02T18:45:31.826Z,101381.34
2023-02-02T18:50:35.081Z,101383.66
2023-02-02T18:55:38.159Z,101386.63
2023-02-02T19:00:42.384Z,101392.38
2023-02-02T19:06:03.705Z,101393.50
2023-02-02T19:11:14.858Z,101409.22
2023-02-02T19:16:30.515Z,101416.59
2023-02-02T19:21:34.907Z,101416.19
2023-02-02T19:26:41.493Z,101413.72
2023-02-02T19:31:45.532Z,101423.84
2023-02-02T19:36:50.428Z,101423.22
2023-02-02T19:41:57.330Z,101428.81
2023-02-02T19:47:00.855Z,101427.13
2023-02-02T19:52:04.890Z,101435.25
2023-02-02T19:57:13.346Z,101436.75
2023-02-02T20:02:32.416Z,101439.25
2023-02-02T20:07:35.242Z,101439.25
2023-02-02T20:12:38.166Z,101445.09
2023-02-02T20:17:40.820Z,101453.06
2023-02-02T20:22:44.648Z,101434.34
2023-02-02T20:27:47.407Z,101432.84
2023-02-02T20:32:55.533Z,101431.19
2023-02-02T20:37:58.443Z,101420.06
2023-02-02T20:43:01.287Z,101423.50
2023-02-02T20:48:04.179Z,101424.28
2023-02-02T20:53:07.224Z,101423.50
2023-02-02T20:58:11.516Z,101421.50
2023-02-02T21:03:14.238Z,101427.75
2023-02-02T21:08:17.171Z,101425.19
2023-02-02T21:13:20.081Z,101426.38
2023-02-02T21:18:22.726Z,101425.59
2023-02-02T21:23:25.401Z,101432.44
2023-02-02T21:28:28.254Z,101432.31
2023-02-02T21:33:30.806Z,101427.44
2023-02-02T21:38:33.582Z,101422.19
2023-02-02T21:43:37.654Z,101418.88
2023-02-02T21:48:42.210Z,101421.53
2023-02-02T21:53:45.156Z,101433.84
2023-02-02T21:58:48.154Z,101439.84
2023-02-02T22:03:51.306Z,101445.50
2023-02-02T22:09:01.357Z,101442.66
2023-02-02T22:14:25.381Z,101444.84
2023-02-02T22:19:34.764Z,101437.44
2023-02-02T22:24:37.721Z,101436.53
2023-02-02T22:29:40.527Z,101435.13
2023-02-02T22:34:43.597Z,101425.09
2023-02-02T22:39:46.311Z,101432.28
2023-02-02T22:44:49.067Z,101430.50
2023-02-02T22:49:51.932Z,101435.78
2023-02-02T22:54:54.499Z,101440.47
2023-02-02T22:59:57.139Z,101439.09
2023-02-02T23:04:59.870Z,101432.16
2023-02-02T23:10:02.771Z,101438.28
2023-02-02T23:15:07.247Z,101448.22
2023-02-02T23:20:13.709Z,101452.66
2023-02-02T23:25:18.825Z,101451.50
2023-02-02T23:30:24.622Z,101456.66
2023-02-02T23:35:27.729Z,101444.03
2023-02-02T23:40:30.348Z,101458.59
2023-02-02T23:45:33.218Z,101454.19
2023-02-02T23:50:39.979Z,101457.59
2023-02-02T23:55:44.144Z,101452.63
